sensor_id;sensor_type;location;lat;lon;timestamp;temperature;humidity
42095;DHT22;27753;55.724;37.612;2023-03-02T00:01:59;-2.40;98.40
42095;DHT22;27753;55.724;37.612;2023-03-02T00:04:53;-2.40;98.50
42095;DHT22;27753;55.724;37.612;2023-03-02T00:07:29;-2.50;98.50
42095;DHT22;27753;55.724;37.612;2023-03-02T00:09:57;-2.50;98.50
42095;DHT22;27753;55.724;37.612;2023-03-02T00:12:25;-2.50;98.60
42095;DHT22;27753;55.724;37.612;2023-03-02T00:14:51;-2.50;98.60
42095;DHT22;27753;55.724;37.612;2023-03-02T00:17:17;-2.40;98.60
42095;DHT22;27753;55.724;37.612;2023-03-02T00:19:43;-2.50;98.50
42095;DHT22;27753;55.724;37.612;2023-03-02T00:22:09;-2.50;98.60
42095;DHT22;27753;55.724;37.612;2023-03-02T00:24:35;-2.50;98.60
42095;DHT22;27753;55.724;37.612;2023-03-02T00:27:01;-2.50;98.60
42095;DHT22;27753;55.724;37.612;2023-03-02T00:29:27;-2.60;98.70
42095;DHT22;27753;55.724;37.612;2023-03-02T00:31:53;-2.50;98.70
42095;DHT22;27753;55.724;37.612;2023-03-02T00:34:19;-2.50;99.00
42095;DHT22;27753;55.724;37.612;2023-03-02T00:36:45;-2.50;98.70
42095;DHT22;27753;55.724;37.612;2023-03-02T00:39:14;-2.50;98.50
42095;DHT22;27753;55.724;37.612;2023-03-02T00:41:42;-2.50;98.30
42095;DHT22;27753;55.724;37.612;2023-03-02T00:44:08;-2.40;98.20
42095;DHT22;27753;55.724;37.612;2023-03-02T00:46:36;-2.50;98.40
42095;DHT22;27753;55.724;37.612;2023-03-02T00:49:02;-2.50;98.00
42095;DHT22;27753;55.724;37.612;2023-03-02T00:51:28;-2.40;97.80
42095;DHT22;27753;55.724;37.612;2023-03-02T00:53:54;-2.40;97.60
42095;DHT22;27753;55.724;37.612;2023-03-02T00:56:19;-2.40;97.30
42095;DHT22;27753;55.724;37.612;2023-03-02T00:58:45;-2.40;97.00
42095;DHT22;27753;55.724;37.612;2023-03-02T01:01:12;-2.40;96.50
42095;DHT22;27753;55.724;37.612;2023-03-02T01:03:38;-2.40;96.30
42095;DHT22;27753;55.724;37.612;2023-03-02T01:06:05;-2.40;96.10
42095;DHT22;27753;55.724;37.612;2023-03-02T01:08:31;-2.40;96.00
42095;DHT22;27753;55.724;37.612;2023-03-02T01:10:57;-2.60;95.80
42095;DHT22;27753;55.724;37.612;2023-03-02T01:13:25;-2.60;95.50
42095;DHT22;27753;55.724;37.612;2023-03-02T01:16:00;-2.80;95.30
42095;DHT22;27753;55.724;37.612;2023-03-02T01:18:26;-2.80;95.30
42095;DHT22;27753;55.724;37.612;2023-03-02T01:21:03;-2.80;95.20
42095;DHT22;27753;55.724;37.612;2023-03-02T01:23:30;-2.80;95.30
42095;DHT22;27753;55.724;37.612;2023-03-02T01:25:56;-2.70;95.30
42095;DHT22;27753;55.724;37.612;2023-03-02T01:28:22;-2.60;95.40
42095;DHT22;27753;55.724;37.612;2023-03-02T01:30:48;-2.60;95.20
42095;DHT22;27753;55.724;37.612;2023-03-02T01:33:14;-2.60;95.10
42095;DHT22;27753;55.724;37.612;2023-03-02T01:35:40;-2.60;95.00
42095;DHT22;27753;55.724;37.612;2023-03-02T01:38:05;-2.60;95.00
42095;DHT22;27753;55.724;37.612;2023-03-02T01:40:31;-2.50;95.10
42095;DHT22;27753;55.724;37.612;2023-03-02T01:42:59;-2.50;95.00
42095;DHT22;27753;55.724;37.612;2023-03-02T01:46:09;-2.60;94.60
42095;DHT22;27753;55.724;37.612;2023-03-02T01:48:51;-2.70;94.40
42095;DHT22;27753;55.724;37.612;2023-03-02T01:51:24;-2.90;94.40
42095;DHT22;27753;55.724;37.612;2023-03-02T01:53:58;-3.00;94.40
42095;DHT22;27753;55.724;37.612;2023-03-02T01:56:36;-3.10;94.40
42095;DHT22;27753;55.724;37.612;2023-03-02T01:59:08;-3.00;94.50
42095;DHT22;27753;55.724;37.612;2023-03-02T02:01:37;-3.00;94.60
42095;DHT22;27753;55.724;37.612;2023-03-02T02:04:04;-3.00;94.60
42095;DHT22;27753;55.724;37.612;2023-03-02T02:06:36;-2.90;94.50
42095;DHT22;27753;55.724;37.612;2023-03-02T02:09:03;-2.90;94.40
42095;DHT22;27753;55.724;37.612;2023-03-02T02:11:30;-2.90;94.40
42095;DHT22;27753;55.724;37.612;2023-03-02T02:13:57;-2.90;94.40
42095;DHT22;27753;55.724;37.612;2023-03-02T02:16:25;-2.90;94.30
42095;DHT22;27753;55.724;37.612;2023-03-02T02:18:51;-3.00;94.30
42095;DHT22;27753;55.724;37.612;2023-03-02T02:21:19;-3.00;94.40
42095;DHT22;27753;55.724;37.612;2023-03-02T02:24:10;-3.00;94.40
42095;DHT22;27753;55.724;37.612;2023-03-02T02:26:48;-3.00;94.30
42095;DHT22;27753;55.724;37.612;2023-03-02T02:35:03;-3.00;94.10
42095;DHT22;27753;55.724;37.612;2023-03-02T02:39:55;-2.90;94.50
42095;DHT22;27753;55.724;37.612;2023-03-02T02:42:29;-2.90;94.10
42095;DHT22;27753;55.724;37.612;2023-03-02T02:44:57;-2.90;94.20
42095;DHT22;27753;55.724;37.612;2023-03-02T02:47:23;-2.90;94.20
42095;DHT22;27753;55.724;37.612;2023-03-02T02:49:52;-2.90;94.20
42095;DHT22;27753;55.724;37.612;2023-03-02T02:52:21;-2.90;94.10
42095;DHT22;27753;55.724;37.612;2023-03-02T02:54:50;-2.90;94.20
42095;DHT22;27753;55.724;37.612;2023-03-02T02:57:17;-2.90;94.30
42095;DHT22;27753;55.724;37.612;2023-03-02T02:59:50;-2.80;94.30
42095;DHT22;27753;55.724;37.612;2023-03-02T03:02:21;-2.90;94.10
42095;DHT22;27753;55.724;37.612;2023-03-02T03:04:48;-2.90;93.90
42095;DHT22;27753;55.724;37.612;2023-03-02T03:07:24;-2.90;93.90
42095;DHT22;27753;55.724;37.612;2023-03-02T03:10:16;-3.00;94.00
42095;DHT22;27753;55.724;37.612;2023-03-02T03:12:44;-3.10;94.00
42095;DHT22;27753;55.724;37.612;2023-03-02T03:15:11;-3.10;94.00
42095;DHT22;27753;55.724;37.612;2023-03-02T03:17:38;-3.10;94.10
42095;DHT22;27753;55.724;37.612;2023-03-02T03:20:04;-3.10;94.30
42095;DHT22;27753;55.724;37.612;2023-03-02T03:22:33;-3.10;94.50
42095;DHT22;27753;55.724;37.612;2023-03-02T03:24:59;-3.10;94.30
42095;DHT22;27753;55.724;37.612;2023-03-02T03:27:25;-3.10;94.40
42095;DHT22;27753;55.724;37.612;2023-03-02T03:29:51;-3.10;94.40
42095;DHT22;27753;55.724;37.612;2023-03-02T03:32:17;-3.10;94.50
42095;DHT22;27753;55.724;37.612;2023-03-02T03:34:44;-3.20;94.30
42095;DHT22;27753;55.724;37.612;2023-03-02T03:37:14;-3.10;94.30
42095;DHT22;27753;55.724;37.612;2023-03-02T03:39:40;-3.20;94.20
42095;DHT22;27753;55.724;37.612;2023-03-02T03:42:06;-3.20;93.90
42095;DHT22;27753;55.724;37.612;2023-03-02T03:44:32;-3.20;93.60
42095;DHT22;27753;55.724;37.612;2023-03-02T03:46:58;-3.20;93.70
42095;DHT22;27753;55.724;37.612;2023-03-02T03:49:24;-3.20;93.80
42095;DHT22;27753;55.724;37.612;2023-03-02T03:51:50;-3.20;93.60
42095;DHT22;27753;55.724;37.612;2023-03-02T03:54:16;-3.10;93.60
42095;DHT22;27753;55.724;37.612;2023-03-02T03:56:45;-3.10;93.60
42095;DHT22;27753;55.724;37.612;2023-03-02T03:59:15;-3.10;93.50
42095;DHT22;27753;55.724;37.612;2023-03-02T04:01:45;-3.10;93.50
42095;DHT22;27753;55.724;37.612;2023-03-02T04:04:16;-3.00;93.40
42095;DHT22;27753;55.724;37.612;2023-03-02T04:06:43;-3.00;93.70
42095;DHT22;27753;55.724;37.612;2023-03-02T04:09:09;-3.00;93.30
42095;DHT22;27753;55.724;37.612;2023-03-02T04:11:39;-3.00;93.20
42095;DHT22;27753;55.724;37.612;2023-03-02T04:14:06;-3.00;93.20
42095;DHT22;27753;55.724;37.612;2023-03-02T04:16:33;-3.00;93.10
42095;DHT22;27753;55.724;37.612;2023-03-02T04:18:59;-3.10;92.40
42095;DHT22;27753;55.724;37.612;2023-03-02T04:21:25;-3.10;92.60
42095;DHT22;27753;55.724;37.612;2023-03-02T04:23:51;-3.20;92.70
42095;DHT22;27753;55.724;37.612;2023-03-02T04:26:17;-3.20;92.70
42095;DHT22;27753;55.724;37.612;2023-03-02T04:28:43;-3.20;92.80
42095;DHT22;27753;55.724;37.612;2023-03-02T04:34:07;-3.30;92.90
42095;DHT22;27753;55.724;37.612;2023-03-02T04:36:36;-3.30;92.70
42095;DHT22;27753;55.724;37.612;2023-03-02T04:39:03;-3.30;92.80
42095;DHT22;27753;55.724;37.612;2023-03-02T04:41:30;-3.40;92.90
42095;DHT22;27753;55.724;37.612;2023-03-02T04:43:56;-3.30;92.90
42095;DHT22;27753;55.724;37.612;2023-03-02T04:46:24;-3.30;93.00
42095;DHT22;27753;55.724;37.612;2023-03-02T04:48:51;-3.30;92.80
42095;DHT22;27753;55.724;37.612;2023-03-02T04:51:26;-3.30;92.80
42095;DHT22;27753;55.724;37.612;2023-03-02T04:54:00;-3.30;92.90
42095;DHT22;27753;55.724;37.612;2023-03-02T04:56:26;-3.30;92.90
42095;DHT22;27753;55.724;37.612;2023-03-02T04:58:52;-3.30;92.80
42095;DHT22;27753;55.724;37.612;2023-03-02T05:01:18;-3.20;92.90
42095;DHT22;27753;55.724;37.612;2023-03-02T05:03:45;-3.30;92.90
42095;DHT22;27753;55.724;37.612;2023-03-02T05:06:12;-3.20;92.80
42095;DHT22;27753;55.724;37.612;2023-03-02T05:08:38;-3.30;92.70
42095;DHT22;27753;55.724;37.612;2023-03-02T05:11:05;-3.30;92.90
42095;DHT22;27753;55.724;37.612;2023-03-02T05:13:32;-3.30;93.00
42095;DHT22;27753;55.724;37.612;2023-03-02T05:15:59;-3.30;93.20
42095;DHT22;27753;55.724;37.612;2023-03-02T05:18:25;-3.30;93.30
42095;DHT22;27753;55.724;37.612;2023-03-02T05:20:52;-3.30;93.20
42095;DHT22;27753;55.724;37.612;2023-03-02T05:23:20;-3.30;93.10
42095;DHT22;27753;55.724;37.612;2023-03-02T05:25:53;-3.40;93.20
42095;DHT22;27753;55.724;37.612;2023-03-02T05:28:21;-3.40;93.30
42095;DHT22;27753;55.724;37.612;2023-03-02T05:30:47;-3.30;93.50
42095;DHT22;27753;55.724;37.612;2023-03-02T05:33:13;-3.30;93.40
42095;DHT22;27753;55.724;37.612;2023-03-02T05:35:39;-3.20;93.40
42095;DHT22;27753;55.724;37.612;2023-03-02T05:38:05;-3.20;93.40
42095;DHT22;27753;55.724;37.612;2023-03-02T05:40:31;-3.20;93.40
42095;DHT22;27753;55.724;37.612;2023-03-02T05:42:57;-3.20;93.40
42095;DHT22;27753;55.724;37.612;2023-03-02T05:45:27;-3.20;93.50
42095;DHT22;27753;55.724;37.612;2023-03-02T05:47:53;-3.10;93.50
42095;DHT22;27753;55.724;37.612;2023-03-02T05:50:19;-3.10;93.40
42095;DHT22;27753;55.724;37.612;2023-03-02T05:52:46;-3.10;93.10
42095;DHT22;27753;55.724;37.612;2023-03-02T05:55:13;-3.10;93.60
42095;DHT22;27753;55.724;37.612;2023-03-02T05:57:39;-3.10;93.60
42095;DHT22;27753;55.724;37.612;2023-03-02T06:00:06;-3.00;93.80
42095;DHT22;27753;55.724;37.612;2023-03-02T06:02:35;-3.10;94.00
42095;DHT22;27753;55.724;37.612;2023-03-02T06:05:02;-3.10;94.10
42095;DHT22;27753;55.724;37.612;2023-03-02T06:07:28;-3.00;94.30
42095;DHT22;27753;55.724;37.612;2023-03-02T06:09:54;-3.00;94.10
42095;DHT22;27753;55.724;37.612;2023-03-02T06:12:20;-3.00;94.10
42095;DHT22;27753;55.724;37.612;2023-03-02T06:14:46;-3.00;94.10
42095;DHT22;27753;55.724;37.612;2023-03-02T06:17:12;-3.00;94.30
42095;DHT22;27753;55.724;37.612;2023-03-02T06:19:38;-2.90;94.30
42095;DHT22;27753;55.724;37.612;2023-03-02T06:22:06;-2.90;94.30
42095;DHT22;27753;55.724;37.612;2023-03-02T06:24:32;-2.80;94.40
42095;DHT22;27753;55.724;37.612;2023-03-02T06:26:58;-2.70;94.60
42095;DHT22;27753;55.724;37.612;2023-03-02T06:29:24;-2.40;94.50
42095;DHT22;27753;55.724;37.612;2023-03-02T06:31:49;-2.40;94.10
42095;DHT22;27753;55.724;37.612;2023-03-02T06:34:15;-2.20;94.30
42095;DHT22;27753;55.724;37.612;2023-03-02T06:36:41;-2.00;94.20
42095;DHT22;27753;55.724;37.612;2023-03-02T06:39:08;-1.90;93.90
42095;DHT22;27753;55.724;37.612;2023-03-02T06:41:44;-1.80;93.90
42095;DHT22;27753;55.724;37.612;2023-03-02T06:44:11;-1.70;93.80
42095;DHT22;27753;55.724;37.612;2023-03-02T06:46:38;-1.60;93.80
42095;DHT22;27753;55.724;37.612;2023-03-02T06:49:05;-1.30;93.60
42095;DHT22;27753;55.724;37.612;2023-03-02T06:51:32;-1.30;93.20
42095;DHT22;27753;55.724;37.612;2023-03-02T06:53:58;-1.10;93.30
42095;DHT22;27753;55.724;37.612;2023-03-02T06:56:24;-1.00;92.70
42095;DHT22;27753;55.724;37.612;2023-03-02T06:58:50;-0.90;92.30
42095;DHT22;27753;55.724;37.612;2023-03-02T07:01:16;-0.80;92.10
42095;DHT22;27753;55.724;37.612;2023-03-02T07:03:42;-0.90;91.70
42095;DHT22;27753;55.724;37.612;2023-03-02T07:06:09;-0.80;91.40
42095;DHT22;27753;55.724;37.612;2023-03-02T07:08:36;-0.90;91.00
42095;DHT22;27753;55.724;37.612;2023-03-02T07:11:10;-0.80;90.90
42095;DHT22;27753;55.724;37.612;2023-03-02T07:13:37;-0.80;90.60
42095;DHT22;27753;55.724;37.612;2023-03-02T07:16:11;-0.80;90.50
42095;DHT22;27753;55.724;37.612;2023-03-02T07:18:37;-0.80;90.20
42095;DHT22;27753;55.724;37.612;2023-03-02T07:21:03;-0.90;88.90
42095;DHT22;27753;55.724;37.612;2023-03-02T07:23:30;-0.90;89.80
42095;DHT22;27753;55.724;37.612;2023-03-02T07:25:56;-0.90;90.10
42095;DHT22;27753;55.724;37.612;2023-03-02T07:28:55;-0.90;90.00
42095;DHT22;27753;55.724;37.612;2023-03-02T07:32:01;-1.00;89.20
42095;DHT22;27753;55.724;37.612;2023-03-02T07:35:08;-1.10;89.70
42095;DHT22;27753;55.724;37.612;2023-03-02T07:37:42;-1.20;90.00
42095;DHT22;27753;55.724;37.612;2023-03-02T07:40:11;-1.20;90.10
42095;DHT22;27753;55.724;37.612;2023-03-02T07:42:40;-1.20;90.10
42095;DHT22;27753;55.724;37.612;2023-03-02T07:45:18;-1.20;89.50
42095;DHT22;27753;55.724;37.612;2023-03-02T07:47:50;-1.20;88.50
42095;DHT22;27753;55.724;37.612;2023-03-02T07:50:38;-1.30;88.50
42095;DHT22;27753;55.724;37.612;2023-03-02T07:53:04;-1.30;88.40
42095;DHT22;27753;55.724;37.612;2023-03-02T07:55:30;-1.40;87.30
42095;DHT22;27753;55.724;37.612;2023-03-02T07:57:59;-1.40;87.00
42095;DHT22;27753;55.724;37.612;2023-03-02T08:00:25;-1.30;86.50
42095;DHT22;27753;55.724;37.612;2023-03-02T08:02:50;-1.20;85.90
42095;DHT22;27753;55.724;37.612;2023-03-02T08:05:16;-1.10;86.40
42095;DHT22;27753;55.724;37.612;2023-03-02T08:07:44;-0.80;85.20
42095;DHT22;27753;55.724;37.612;2023-03-02T08:10:11;-0.70;83.30
42095;DHT22;27753;55.724;37.612;2023-03-02T08:12:36;-0.60;82.80
42095;DHT22;27753;55.724;37.612;2023-03-02T08:15:03;-0.60;81.70
42095;DHT22;27753;55.724;37.612;2023-03-02T08:17:29;-0.50;81.60
42095;DHT22;27753;55.724;37.612;2023-03-02T08:19:55;-0.50;81.60
42095;DHT22;27753;55.724;37.612;2023-03-02T08:22:21;-0.50;80.80
42095;DHT22;27753;55.724;37.612;2023-03-02T08:24:47;-0.60;81.90
42095;DHT22;27753;55.724;37.612;2023-03-02T08:27:14;-0.50;82.30
42095;DHT22;27753;55.724;37.612;2023-03-02T08:29:40;-0.50;80.90
42095;DHT22;27753;55.724;37.612;2023-03-02T08:32:06;-0.60;81.20
42095;DHT22;27753;55.724;37.612;2023-03-02T08:34:32;-0.70;81.20
42095;DHT22;27753;55.724;37.612;2023-03-02T08:36:58;-0.60;81.50
42095;DHT22;27753;55.724;37.612;2023-03-02T08:39:24;-0.50;81.90
42095;DHT22;27753;55.724;37.612;2023-03-02T08:41:51;-0.40;81.60
42095;DHT22;27753;55.724;37.612;2023-03-02T08:44:17;-0.30;81.40
42095;DHT22;27753;55.724;37.612;2023-03-02T08:46:45;-0.20;80.80
42095;DHT22;27753;55.724;37.612;2023-03-02T08:49:11;-0.20;80.20
42095;DHT22;27753;55.724;37.612;2023-03-02T08:51:37;-0.20;80.00
42095;DHT22;27753;55.724;37.612;2023-03-02T08:54:03;-0.20;80.00
42095;DHT22;27753;55.724;37.612;2023-03-02T08:56:32;-0.20;78.70
42095;DHT22;27753;55.724;37.612;2023-03-02T08:59:02;-0.30;79.20
42095;DHT22;27753;55.724;37.612;2023-03-02T09:01:31;-0.30;78.90
42095;DHT22;27753;55.724;37.612;2023-03-02T09:03:58;-0.40;78.70
42095;DHT22;27753;55.724;37.612;2023-03-02T09:06:26;-0.40;78.80
42095;DHT22;27753;55.724;37.612;2023-03-02T09:08:52;-0.50;78.90
42095;DHT22;27753;55.724;37.612;2023-03-02T09:11:18;-0.60;79.40
42095;DHT22;27753;55.724;37.612;2023-03-02T09:13:44;-0.50;79.80
42095;DHT22;27753;55.724;37.612;2023-03-02T09:16:11;-0.40;79.60
42095;DHT22;27753;55.724;37.612;2023-03-02T09:18:37;-0.40;78.90
42095;DHT22;27753;55.724;37.612;2023-03-02T09:21:03;-0.20;78.00
42095;DHT22;27753;55.724;37.612;2023-03-02T09:23:30;-0.20;78.00
42095;DHT22;27753;55.724;37.612;2023-03-02T09:25:56;-0.20;78.10
42095;DHT22;27753;55.724;37.612;2023-03-02T09:28:22;0.00;78.50
42095;DHT22;27753;55.724;37.612;2023-03-02T09:30:53;0.20;78.00
42095;DHT22;27753;55.724;37.612;2023-03-02T09:33:20;0.20;78.00
42095;DHT22;27753;55.724;37.612;2023-03-02T09:35:46;0.50;78.00
42095;DHT22;27753;55.724;37.612;2023-03-02T09:38:13;0.50;76.50
42095;DHT22;27753;55.724;37.612;2023-03-02T09:46:38;0.50;76.60
42095;DHT22;27753;55.724;37.612;2023-03-02T09:51:51;0.70;74.80
42095;DHT22;27753;55.724;37.612;2023-03-02T09:54:20;0.60;74.00
42095;DHT22;27753;55.724;37.612;2023-03-02T09:56:52;0.50;74.80
42095;DHT22;27753;55.724;37.612;2023-03-02T09:59:36;0.30;74.90
42095;DHT22;27753;55.724;37.612;2023-03-02T10:02:27;0.30;75.80
42095;DHT22;27753;55.724;37.612;2023-03-02T10:04:56;0.50;74.90
42095;DHT22;27753;55.724;37.612;2023-03-02T10:07:31;0.50;74.20
42095;DHT22;27753;55.724;37.612;2023-03-02T10:12:47;0.60;73.50
42095;DHT22;27753;55.724;37.612;2023-03-02T10:18:27;1.40;71.90
42095;DHT22;27753;55.724;37.612;2023-03-02T10:21:27;1.70;72.00
42095;DHT22;27753;55.724;37.612;2023-03-02T10:24:58;1.90;70.90
42095;DHT22;27753;55.724;37.612;2023-03-02T10:30:00;1.80;70.50
42095;DHT22;27753;55.724;37.612;2023-03-02T10:32:35;1.70;70.40
42095;DHT22;27753;55.724;37.612;2023-03-02T10:35:13;1.70;69.70
42095;DHT22;27753;55.724;37.612;2023-03-02T10:37:41;1.60;70.20
42095;DHT22;27753;55.724;37.612;2023-03-02T10:40:19;1.50;69.30
42095;DHT22;27753;55.724;37.612;2023-03-02T10:42:49;1.30;69.80
42095;DHT22;27753;55.724;37.612;2023-03-02T10:45:28;1.20;70.00
42095;DHT22;27753;55.724;37.612;2023-03-02T10:48:03;1.10;70.30
42095;DHT22;27753;55.724;37.612;2023-03-02T10:50:29;0.90;70.30
42095;DHT22;27753;55.724;37.612;2023-03-02T10:52:58;0.60;70.80
42095;DHT22;27753;55.724;37.612;2023-03-02T10:55:24;0.50;71.40
42095;DHT22;27753;55.724;37.612;2023-03-02T10:58:04;0.50;72.20
42095;DHT22;27753;55.724;37.612;2023-03-02T11:00:31;0.60;72.40
42095;DHT22;27753;55.724;37.612;2023-03-02T11:02:59;0.50;72.10
42095;DHT22;27753;55.724;37.612;2023-03-02T11:05:30;0.30;72.50
42095;DHT22;27753;55.724;37.612;2023-03-02T11:08:07;0.20;73.00
42095;DHT22;27753;55.724;37.612;2023-03-02T11:10:58;0.30;73.50
42095;DHT22;27753;55.724;37.612;2023-03-02T11:13:26;0.60;73.80
42095;DHT22;27753;55.724;37.612;2023-03-02T11:21:31;0.60;73.30
42095;DHT22;27753;55.724;37.612;2023-03-02T11:24:25;0.70;73.90
42095;DHT22;27753;55.724;37.612;2023-03-02T11:27:26;0.60;72.60
42095;DHT22;27753;55.724;37.612;2023-03-02T11:30:02;0.30;73.70
42095;DHT22;27753;55.724;37.612;2023-03-02T11:37:52;0.30;74.60
42095;DHT22;27753;55.724;37.612;2023-03-02T11:43:08;0.30;75.00
42095;DHT22;27753;55.724;37.612;2023-03-02T11:46:02;0.40;75.20
42095;DHT22;27753;55.724;37.612;2023-03-02T11:48:58;0.70;74.80
42095;DHT22;27753;55.724;37.612;2023-03-02T11:51:28;0.80;74.40
42095;DHT22;27753;55.724;37.612;2023-03-02T11:54:03;0.60;73.60
42095;DHT22;27753;55.724;37.612;2023-03-02T11:56:35;0.50;74.40
42095;DHT22;27753;55.724;37.612;2023-03-02T11:59:06;0.50;74.80
42095;DHT22;27753;55.724;37.612;2023-03-02T12:01:35;0.50;75.50
42095;DHT22;27753;55.724;37.612;2023-03-02T12:06:48;0.80;75.00
42095;DHT22;27753;55.724;37.612;2023-03-02T12:14:47;0.30;75.00
42095;DHT22;27753;55.724;37.612;2023-03-02T12:17:28;0.30;75.50
42095;DHT22;27753;55.724;37.612;2023-03-02T12:20:22;0.30;76.00
42095;DHT22;27753;55.724;37.612;2023-03-02T12:22:49;0.30;75.70
42095;DHT22;27753;55.724;37.612;2023-03-02T12:27:45;0.30;76.30
42095;DHT22;27753;55.724;37.612;2023-03-02T12:32:43;0.00;76.50
42095;DHT22;27753;55.724;37.612;2023-03-02T12:35:16;0.10;77.00
42095;DHT22;27753;55.724;37.612;2023-03-02T12:43:33;0.00;77.30
42095;DHT22;27753;55.724;37.612;2023-03-02T12:46:30;0.00;77.40
42095;DHT22;27753;55.724;37.612;2023-03-02T12:54:27;0.10;78.70
42095;DHT22;27753;55.724;37.612;2023-03-02T12:57:14;0.10;78.70
42095;DHT22;27753;55.724;37.612;2023-03-02T12:59:41;0.00;78.60
42095;DHT22;27753;55.724;37.612;2023-03-02T13:02:18;-0.10;78.70
42095;DHT22;27753;55.724;37.612;2023-03-02T13:04:52;-0.10;79.10
42095;DHT22;27753;55.724;37.612;2023-03-02T13:07:23;-0.30;79.20
42095;DHT22;27753;55.724;37.612;2023-03-02T13:09:51;-0.50;79.80
42095;DHT22;27753;55.724;37.612;2023-03-02T13:12:17;-0.50;80.50
42095;DHT22;27753;55.724;37.612;2023-03-02T13:14:53;-0.40;81.00
42095;DHT22;27753;55.724;37.612;2023-03-02T13:17:23;-0.20;81.00
42095;DHT22;27753;55.724;37.612;2023-03-02T13:19:49;-0.10;80.60
42095;DHT22;27753;55.724;37.612;2023-03-02T13:22:15;0.00;80.30
42095;DHT22;27753;55.724;37.612;2023-03-02T13:27:18;-0.10;80.10
42095;DHT22;27753;55.724;37.612;2023-03-02T13:29:45;-0.10;80.30
42095;DHT22;27753;55.724;37.612;2023-03-02T13:32:20;-0.10;80.20
42095;DHT22;27753;55.724;37.612;2023-03-02T13:34:55;-0.10;80.10
42095;DHT22;27753;55.724;37.612;2023-03-02T13:39:59;-0.10;79.70
42095;DHT22;27753;55.724;37.612;2023-03-02T13:42:35;-0.30;79.80
42095;DHT22;27753;55.724;37.612;2023-03-02T13:45:20;-0.30;80.10
42095;DHT22;27753;55.724;37.612;2023-03-02T13:47:46;-0.30;80.40
42095;DHT22;27753;55.724;37.612;2023-03-02T13:50:31;-0.30;79.90
42095;DHT22;27753;55.724;37.612;2023-03-02T13:53:00;-0.50;80.00
42095;DHT22;27753;55.724;37.612;2023-03-02T13:55:28;-0.60;80.50
42095;DHT22;27753;55.724;37.612;2023-03-02T13:57:55;-0.60;80.70
42095;DHT22;27753;55.724;37.612;2023-03-02T14:00:26;-0.60;80.80
42095;DHT22;27753;55.724;37.612;2023-03-02T14:02:53;-0.60;80.90
42095;DHT22;27753;55.724;37.612;2023-03-02T14:05:21;-0.60;80.80
42095;DHT22;27753;55.724;37.612;2023-03-02T14:07:49;-0.60;81.10
42095;DHT22;27753;55.724;37.612;2023-03-02T14:10:18;-0.60;81.40
42095;DHT22;27753;55.724;37.612;2023-03-02T14:12:53;-0.50;81.50
42095;DHT22;27753;55.724;37.612;2023-03-02T14:15:20;-0.50;81.40
42095;DHT22;27753;55.724;37.612;2023-03-02T14:17:52;-0.50;81.30
42095;DHT22;27753;55.724;37.612;2023-03-02T14:20:19;-0.60;80.90
42095;DHT22;27753;55.724;37.612;2023-03-02T14:22:47;-0.70;81.20
42095;DHT22;27753;55.724;37.612;2023-03-02T14:25:15;-0.70;81.60
42095;DHT22;27753;55.724;37.612;2023-03-02T14:27:42;-0.70;82.10
42095;DHT22;27753;55.724;37.612;2023-03-02T14:30:17;-0.70;82.10
42095;DHT22;27753;55.724;37.612;2023-03-02T14:32:43;-0.80;82.10
42095;DHT22;27753;55.724;37.612;2023-03-02T14:35:11;-0.80;82.30
42095;DHT22;27753;55.724;37.612;2023-03-02T14:37:41;-0.90;82.30
42095;DHT22;27753;55.724;37.612;2023-03-02T14:40:16;-0.90;82.70
42095;DHT22;27753;55.724;37.612;2023-03-02T14:42:42;-0.80;82.70
42095;DHT22;27753;55.724;37.612;2023-03-02T14:45:09;-0.80;82.70
42095;DHT22;27753;55.724;37.612;2023-03-02T14:47:35;-0.80;82.70
42095;DHT22;27753;55.724;37.612;2023-03-02T14:50:01;-0.80;82.90
42095;DHT22;27753;55.724;37.612;2023-03-02T14:52:30;-0.70;83.10
42095;DHT22;27753;55.724;37.612;2023-03-02T14:54:59;-0.70;83.20
42095;DHT22;27753;55.724;37.612;2023-03-02T14:57:28;-0.70;83.30
42095;DHT22;27753;55.724;37.612;2023-03-02T14:59:54;-0.70;83.30
42095;DHT22;27753;55.724;37.612;2023-03-02T15:02:22;-0.80;83.00
42095;DHT22;27753;55.724;37.612;2023-03-02T15:04:48;-0.70;83.30
42095;DHT22;27753;55.724;37.612;2023-03-02T15:07:19;-0.70;83.60
42095;DHT22;27753;55.724;37.612;2023-03-02T15:09:45;-0.70;84.00
42095;DHT22;27753;55.724;37.612;2023-03-02T15:12:12;-0.60;84.40
42095;DHT22;27753;55.724;37.612;2023-03-02T15:14:38;-0.70;84.90
42095;DHT22;27753;55.724;37.612;2023-03-02T15:17:04;-0.70;85.80
42095;DHT22;27753;55.724;37.612;2023-03-02T15:19:30;-0.80;86.70
42095;DHT22;27753;55.724;37.612;2023-03-02T15:21:56;-0.90;87.50
42095;DHT22;27753;55.724;37.612;2023-03-02T15:24:22;-0.90;88.00
42095;DHT22;27753;55.724;37.612;2023-03-02T15:26:49;-0.80;88.30
42095;DHT22;27753;55.724;37.612;2023-03-02T15:29:16;-0.80;88.60
42095;DHT22;27753;55.724;37.612;2023-03-02T15:31:42;-0.80;88.50
42095;DHT22;27753;55.724;37.612;2023-03-02T15:34:07;-0.70;88.70
42095;DHT22;27753;55.724;37.612;2023-03-02T15:36:34;-0.70;88.80
42095;DHT22;27753;55.724;37.612;2023-03-02T15:39:00;-0.70;89.00
42095;DHT22;27753;55.724;37.612;2023-03-02T15:41:26;-0.80;89.20
42095;DHT22;27753;55.724;37.612;2023-03-02T15:43:52;-0.80;89.70
42095;DHT22;27753;55.724;37.612;2023-03-02T15:46:22;-0.80;90.00
42095;DHT22;27753;55.724;37.612;2023-03-02T15:48:49;-0.90;90.10
42095;DHT22;27753;55.724;37.612;2023-03-02T15:51:18;-0.90;90.30
42095;DHT22;27753;55.724;37.612;2023-03-02T15:53:44;-0.90;90.40
42095;DHT22;27753;55.724;37.612;2023-03-02T15:56:12;-0.90;90.60
42095;DHT22;27753;55.724;37.612;2023-03-02T15:58:39;-0.90;90.70
42095;DHT22;27753;55.724;37.612;2023-03-02T16:01:09;-0.90;90.80
42095;DHT22;27753;55.724;37.612;2023-03-02T16:03:36;-0.80;90.90
42095;DHT22;27753;55.724;37.612;2023-03-02T16:06:03;-0.80;90.90
42095;DHT22;27753;55.724;37.612;2023-03-02T16:08:29;-0.80;91.00
42095;DHT22;27753;55.724;37.612;2023-03-02T16:11:01;-0.80;91.00
42095;DHT22;27753;55.724;37.612;2023-03-02T16:13:27;-0.70;91.10
42095;DHT22;27753;55.724;37.612;2023-03-02T16:15:55;-0.70;91.20
42095;DHT22;27753;55.724;37.612;2023-03-02T16:18:21;-0.70;91.30
42095;DHT22;27753;55.724;37.612;2023-03-02T16:20:48;-0.70;91.30
42095;DHT22;27753;55.724;37.612;2023-03-02T16:23:14;-0.70;91.50
42095;DHT22;27753;55.724;37.612;2023-03-02T16:25:43;-0.70;91.60
42095;DHT22;27753;55.724;37.612;2023-03-02T16:28:13;-0.70;91.70
42095;DHT22;27753;55.724;37.612;2023-03-02T16:30:40;-0.70;92.00
42095;DHT22;27753;55.724;37.612;2023-03-02T16:33:08;-0.70;92.10
42095;DHT22;27753;55.724;37.612;2023-03-02T16:35:35;-0.80;92.40
42095;DHT22;27753;55.724;37.612;2023-03-02T16:38:02;-0.90;92.80
42095;DHT22;27753;55.724;37.612;2023-03-02T16:40:28;-0.90;93.20
42095;DHT22;27753;55.724;37.612;2023-03-02T16:42:54;-1.00;93.50
42095;DHT22;27753;55.724;37.612;2023-03-02T16:45:21;-1.00;93.80